createdAt,value
2022-11-09T00:01:18.783Z,2.90
2022-11-09T00:04:25.541Z,3.13
2022-11-09T00:07:32.717Z,3.08
2022-11-09T00:10:38.269Z,3.17
2022-11-09T00:13:44.787Z,2.92
2022-11-09T00:16:52.633Z,2.72
2022-11-09T00:19:58.527Z,3.33
2022-11-09T00:23:03.722Z,3.90
2022-11-09T00:26:09.788Z,2.92
2022-11-09T00:29:17.483Z,3.22
2022-11-09T00:32:27.823Z,3.55
2022-11-09T00:35:33.696Z,3.55
2022-11-09T00:38:40.802Z,2.88
2022-11-09T00:41:46.133Z,3.00
2022-11-09T00:44:50.974Z,3.13
2022-11-09T00:48:04.253Z,2.75
2022-11-09T00:51:09.721Z,3.35
2022-11-09T00:54:15.162Z,3.13
2022-11-09T00:57:20.001Z,3.30
2022-11-09T01:00:26.311Z,3.42
2022-11-09T01:03:33.737Z,3.35
2022-11-09T01:06:40.514Z,3.45
2022-11-09T01:09:47.097Z,3.10
2022-11-09T01:12:52.310Z,2.90
2022-11-09T01:15:57.159Z,2.78
2022-11-09T01:19:06.648Z,3.47
2022-11-09T01:22:11.549Z,3.70
2022-11-09T01:25:16.753Z,3.00
2022-11-09T01:28:27.633Z,3.47
2022-11-09T01:31:34.354Z,2.92
2022-11-09T01:34:43.195Z,3.28
2022-11-09T01:37:48.446Z,3.72
2022-11-09T01:40:53.276Z,3.65
2022-11-09T01:44:13.576Z,3.53
2022-11-09T01:47:21.846Z,3.25
2022-11-09T01:50:31.594Z,4.18
2022-11-09T01:53:37.712Z,3.00
2022-11-09T01:56:43.595Z,3.35
2022-11-09T01:59:50.845Z,3.92
2022-11-09T02:02:58.475Z,3.45
2022-11-09T02:06:08.162Z,3.40
2022-11-09T02:09:16.979Z,3.35
2022-11-09T02:12:22.322Z,3.50
2022-11-09T02:15:29.422Z,3.58
2022-11-09T02:18:35.772Z,3.47
2022-11-09T02:21:44.144Z,3.85
2022-11-09T02:24:56.022Z,2.92
2022-11-09T02:31:08.533Z,3.90
2022-11-09T02:34:15.799Z,3.10
2022-11-09T02:37:31.056Z,3.67
2022-11-09T02:40:39.558Z,3.80
2022-11-09T02:43:45.109Z,3.22
2022-11-09T02:46:50.524Z,3.35
2022-11-09T02:49:58.016Z,3.30
2022-11-09T02:53:05.950Z,3.25
2022-11-09T02:56:11.235Z,3.13
2022-11-09T02:59:16.505Z,3.60
2022-11-09T03:02:21.836Z,3.55
2022-11-09T03:05:27.049Z,3.42
2022-11-09T03:08:34.541Z,3.50
2022-11-09T03:11:40.137Z,3.78
2022-11-09T03:14:47.798Z,3.20
2022-11-09T03:17:53.032Z,3.55
2022-11-09T03:21:04.061Z,3.50
2022-11-09T03:24:12.214Z,3.30
2022-11-09T03:27:17.306Z,4.28
2022-11-09T03:30:22.520Z,3.80
2022-11-09T03:33:27.654Z,3.47
2022-11-09T03:36:33.233Z,3.55
2022-11-09T03:39:42.323Z,3.30
2022-11-09T03:42:48.040Z,3.60
2022-11-09T03:45:56.157Z,3.35
2022-11-09T03:49:01.606Z,3.30
2022-11-09T03:52:06.857Z,4.13
2022-11-09T03:55:17.946Z,3.60
2022-11-09T03:58:23.231Z,3.60
2022-11-09T04:01:28.855Z,3.65
2022-11-09T04:04:34.837Z,3.30
2022-11-09T04:07:40.206Z,3.40
2022-11-09T04:10:47.718Z,3.10
2022-11-09T04:13:53.026Z,3.50
2022-11-09T04:16:59.133Z,2.60
2022-11-09T04:20:05.229Z,3.95
2022-11-09T04:23:11.008Z,3.28
2022-11-09T04:26:18.917Z,3.50
2022-11-09T04:29:24.068Z,3.28
2022-11-09T04:32:29.376Z,3.33
2022-11-09T04:35:35.267Z,3.65
2022-11-09T04:38:40.447Z,3.03
2022-11-09T04:41:48.146Z,3.00
2022-11-09T04:44:54.353Z,3.20
2022-11-09T04:48:00.416Z,3.17
2022-11-09T04:51:05.981Z,2.80
2022-11-09T04:54:12.702Z,2.90
2022-11-09T04:57:20.445Z,3.28
2022-11-09T05:00:27.265Z,3.45
2022-11-09T05:03:35.161Z,3.30
2022-11-09T05:06:40.179Z,3.03
2022-11-09T05:09:45.549Z,3.30
2022-11-09T05:12:53.024Z,3.00
2022-11-09T05:15:58.225Z,2.88
2022-11-09T05:19:03.088Z,3.10
2022-11-09T05:22:20.451Z,3.50
2022-11-09T05:25:26.127Z,3.03
2022-11-09T05:28:34.053Z,3.00
2022-11-09T05:31:44.540Z,2.80
2022-11-09T05:34:53.236Z,2.60
2022-11-09T05:37:58.351Z,3.10
2022-11-09T05:41:03.540Z,2.97
2022-11-09T05:44:11.099Z,2.88
2022-11-09T05:47:19.504Z,3.50
2022-11-09T05:50:28.684Z,3.22
2022-11-09T05:53:34.367Z,2.75
2022-11-09T05:56:39.860Z,2.92
2022-11-09T05:59:47.693Z,2.80
2022-11-09T06:02:54.611Z,2.97
2022-11-09T06:06:08.068Z,3.10
2022-11-09T06:09:13.637Z,3.35
2022-11-09T06:12:18.814Z,2.80
2022-11-09T06:15:26.715Z,3.15
2022-11-09T06:18:32.843Z,3.30
2022-11-09T06:21:37.707Z,3.25
2022-11-09T06:24:43.128Z,2.80
2022-11-09T06:27:47.970Z,3.15
2022-11-09T06:30:56.976Z,3.22
2022-11-09T06:34:01.781Z,3.03
2022-11-09T06:37:07.352Z,2.67
2022-11-09T06:40:21.463Z,3.03
2022-11-09T06:43:27.135Z,3.33
2022-11-09T06:46:34.744Z,3.25
2022-11-09T06:49:40.043Z,2.53
2022-11-09T06:52:46.045Z,2.42
2022-11-09T06:55:51.242Z,3.00
2022-11-09T06:58:58.591Z,2.83
2022-11-09T07:02:06.561Z,2.70
2022-11-09T07:05:15.521Z,2.72
2022-11-09T07:08:22.560Z,2.80
2022-11-09T07:11:29.500Z,3.30
2022-11-09T07:14:34.792Z,3.00
2022-11-09T07:17:42.257Z,2.88
2022-11-09T07:20:47.548Z,3.22
2022-11-09T07:23:52.798Z,2.97
2022-11-09T07:26:58.239Z,3.08
2022-11-09T07:30:03.157Z,3.45
2022-11-09T07:33:14.136Z,3.13
2022-11-09T07:36:21.521Z,3.03
2022-11-09T07:39:27.093Z,3.15
2022-11-09T07:42:32.002Z,3.35
2022-11-09T07:45:37.768Z,2.90
2022-11-09T07:48:45.262Z,3.35
2022-11-09T07:51:50.812Z,3.10
2022-11-09T07:54:55.660Z,3.13
2022-11-09T07:58:01.338Z,3.53
2022-11-09T08:01:09.565Z,3.10
2022-11-09T08:04:17.553Z,3.15
2022-11-09T08:07:23.773Z,3.38
2022-11-09T08:10:29.686Z,3.15
2022-11-09T08:13:34.642Z,3.65
2022-11-09T08:16:41.021Z,2.55
2022-11-09T08:19:49.583Z,2.80
2022-11-09T08:22:57.369Z,2.63
2022-11-09T08:26:06.480Z,2.88
2022-11-09T08:29:13.665Z,2.97
2022-11-09T08:32:18.534Z,3.35
2022-11-09T08:35:29.888Z,2.78
2022-11-09T08:38:36.288Z,2.35
2022-11-09T08:41:41.639Z,3.08
2022-11-09T08:44:49.537Z,2.88
2022-11-09T08:48:00.099Z,3.35
2022-11-09T08:51:07.663Z,2.83
2022-11-09T08:54:14.493Z,2.38
2022-11-09T08:57:20.639Z,2.50
2022-11-09T09:00:26.157Z,2.95
2022-11-09T09:03:31.324Z,2.60
2022-11-09T09:06:39.862Z,2.80
2022-11-09T09:09:46.261Z,3.13
2022-11-09T09:12:51.618Z,3.00
2022-11-09T09:15:56.437Z,3.10
2022-11-09T09:19:01.712Z,2.95
2022-11-09T09:22:09.233Z,3.42
2022-11-09T09:25:14.756Z,2.80
2022-11-09T09:28:19.885Z,2.90
2022-11-09T09:31:25.544Z,2.95
2022-11-09T09:34:31.581Z,2.67
2022-11-09T09:37:40.592Z,2.97
2022-11-09T09:40:50.981Z,2.70
2022-11-09T09:43:58.058Z,2.83
2022-11-09T09:47:07.178Z,2.72
2022-11-09T09:50:16.269Z,2.58
2022-11-09T09:53:25.675Z,2.60
2022-11-09T09:56:33.680Z,2.53
2022-11-09T09:59:41.471Z,2.78
2022-11-09T10:02:46.966Z,2.92
2022-11-09T10:05:58.025Z,2.80
2022-11-09T10:09:09.265Z,2.70
2022-11-09T10:12:21.577Z,2.78
2022-11-09T10:15:30.041Z,3.00
2022-11-09T10:18:39.154Z,3.10
2022-11-09T10:21:50.121Z,2.95
2022-11-09T10:28:27.467Z,2.97
2022-11-09T10:31:34.199Z,3.83
2022-11-09T10:34:43.315Z,2.72
2022-11-09T10:37:50.188Z,2.65
2022-11-09T10:40:59.910Z,2.50
2022-11-09T10:44:04.885Z,2.70
2022-11-09T10:47:12.173Z,2.88
2022-11-09T10:50:25.566Z,2.80
2022-11-09T10:53:31.660Z,2.90
2022-11-09T10:57:05.611Z,2.58
2022-11-09T11:00:17.213Z,2.90
2022-11-09T11:03:24.701Z,2.88
2022-11-09T11:06:31.735Z,3.08
2022-11-09T11:09:36.702Z,2.75
2022-11-09T11:12:45.121Z,3.28
2022-11-09T11:15:51.109Z,3.30
2022-11-09T11:18:57.038Z,3.30
2022-11-09T11:22:11.487Z,2.92
2022-11-09T11:25:20.972Z,3.67
2022-11-09T11:28:33.523Z,2.70
2022-11-09T11:31:39.712Z,2.92
2022-11-09T11:34:59.855Z,2.88
2022-11-09T11:38:17.215Z,3.20
2022-11-09T11:41:42.324Z,3.42
2022-11-09T11:45:18.455Z,3.10
2022-11-09T11:48:38.366Z,2.85
2022-11-09T11:51:48.387Z,3.67
2022-11-09T11:54:59.085Z,3.35
2022-11-09T11:58:13.852Z,2.95
2022-11-09T12:01:36.570Z,3.35
2022-11-09T12:04:56.123Z,3.47
2022-11-09T12:08:06.413Z,2.75
2022-11-09T12:11:14.449Z,3.63
2022-11-09T12:14:25.284Z,2.92
2022-11-09T12:17:39.951Z,3.30
2022-11-09T12:20:48.228Z,3.67
2022-11-09T12:24:05.336Z,3.20
2022-11-09T12:27:32.877Z,2.97
2022-11-09T12:30:47.816Z,2.78
2022-11-09T12:33:57.689Z,2.97
2022-11-09T12:37:04.907Z,3.00
2022-11-09T12:40:17.797Z,3.15
2022-11-09T12:43:24.503Z,3.15
2022-11-09T12:46:32.670Z,2.97
2022-11-09T12:49:41.487Z,3.20
2022-11-09T12:52:46.730Z,3.25
2022-11-09T12:55:56.752Z,3.40
2022-11-09T12:59:17.290Z,3.30
2022-11-09T13:02:26.782Z,3.30
2022-11-09T13:05:36.754Z,2.97
2022-11-09T13:08:42.426Z,3.20
2022-11-09T13:11:49.482Z,3.30
2022-11-09T13:14:54.683Z,2.85
2022-11-09T13:18:04.172Z,3.28
2022-11-09T13:21:24.249Z,2.90
2022-11-09T13:24:56.055Z,2.33
2022-11-09T13:28:03.848Z,2.22
2022-11-09T13:31:11.922Z,2.70
2022-11-09T13:34:41.103Z,3.00
2022-11-09T13:37:58.710Z,2.42
2022-11-09T13:41:06.015Z,2.08
2022-11-09T13:44:19.159Z,2.45
2022-11-09T13:47:25.354Z,3.17
2022-11-09T13:50:31.625Z,2.70
2022-11-09T13:53:52.994Z,2.40
2022-11-09T13:57:00.421Z,2.38
2022-11-09T14:00:10.850Z,3.00
2022-11-09T14:03:23.420Z,2.60
2022-11-09T14:06:32.658Z,2.67
2022-11-09T14:09:42.281Z,2.35
2022-11-09T14:12:51.101Z,2.55
2022-11-09T14:16:00.298Z,2.40
2022-11-09T14:19:10.406Z,2.80
2022-11-09T14:22:17.962Z,3.17
2022-11-09T14:25:25.674Z,3.00
2022-11-09T14:28:31.369Z,3.38
2022-11-09T14:31:45.917Z,2.85
2022-11-09T14:34:53.436Z,2.70
2022-11-09T14:37:59.371Z,2.67
2022-11-09T14:41:04.774Z,2.75
2022-11-09T14:44:16.148Z,3.10
2022-11-09T14:47:26.647Z,2.70
2022-11-09T14:50:33.945Z,3.65
2022-11-09T14:53:39.613Z,3.80
2022-11-09T14:56:45.231Z,3.40
2022-11-09T14:59:51.147Z,3.20
2022-11-09T15:03:02.011Z,3.28
2022-11-09T15:06:11.032Z,3.28
2022-11-09T15:09:21.113Z,3.50
2022-11-09T15:12:26.339Z,3.67
2022-11-09T15:15:33.134Z,3.65
2022-11-09T15:18:45.706Z,3.72
2022-11-09T15:21:51.057Z,4.13
2022-11-09T15:24:56.130Z,4.30
2022-11-09T15:28:03.330Z,4.57
2022-11-09T15:31:13.423Z,6.13
2022-11-09T15:34:28.627Z,4.93
2022-11-09T15:37:35.229Z,4.47
2022-11-09T15:40:40.539Z,5.00
2022-11-09T15:43:45.937Z,4.45
2022-11-09T15:46:52.109Z,4.93
2022-11-09T15:49:59.613Z,5.50
2022-11-09T15:53:14.193Z,5.15
2022-11-09T15:56:21.942Z,5.32
2022-11-09T15:59:28.813Z,5.38
2022-11-09T16:02:33.613Z,5.10
2022-11-09T16:05:41.836Z,4.68
2022-11-09T16:08:46.639Z,5.35
2022-11-09T16:11:52.042Z,5.10
2022-11-09T16:14:56.845Z,5.55
2022-11-09T16:18:03.083Z,5.15
2022-11-09T16:21:14.358Z,5.00
2022-11-09T16:24:20.436Z,5.97
2022-11-09T16:30:50.692Z,5.20
2022-11-09T16:33:56.521Z,5.82
2022-11-09T16:37:04.411Z,5.70
2022-11-09T16:40:11.090Z,4.93
2022-11-09T16:43:18.281Z,5.72
2022-11-09T16:46:27.833Z,6.03
2022-11-09T16:49:33.793Z,5.80
2022-11-09T16:52:41.263Z,6.50
2022-11-09T16:55:49.421Z,5.88
2022-11-09T16:58:54.290Z,6.70
2022-11-09T17:02:00.312Z,4.93
2022-11-09T17:05:05.278Z,6.38
2022-11-09T17:08:13.820Z,6.40
2022-11-09T17:11:18.717Z,5.90
2022-11-09T17:14:23.918Z,6.22
2022-11-09T17:17:28.766Z,5.80
2022-11-09T17:20:42.685Z,6.45
2022-11-09T17:23:50.665Z,5.68
2022-11-09T17:26:56.596Z,5.95
2022-11-09T17:30:01.614Z,5.55
2022-11-09T17:33:06.897Z,5.65
2022-11-09T17:36:14.152Z,5.47
2022-11-09T17:39:23.018Z,5.63
2022-11-09T17:42:27.843Z,6.05
2022-11-09T17:45:33.058Z,7.22
2022-11-09T17:48:38.549Z,5.85
2022-11-09T17:51:43.878Z,5.85
2022-11-09T17:54:51.320Z,5.47
2022-11-09T17:57:57.078Z,5.85
2022-11-09T18:01:07.189Z,5.40
2022-11-09T18:04:13.423Z,5.93
2022-11-09T18:07:18.556Z,6.05
2022-11-09T18:10:27.631Z,4.78
2022-11-09T18:13:32.498Z,5.43
2022-11-09T18:16:37.694Z,5.90
2022-11-09T18:19:42.543Z,5.78
2022-11-09T18:22:47.718Z,5.35
2022-11-09T18:26:01.242Z,5.75
2022-11-09T18:29:09.308Z,6.00
2022-11-09T18:32:15.201Z,5.78
2022-11-09T18:35:20.669Z,5.95
2022-11-09T18:38:29.150Z,6.53
2022-11-09T18:41:38.816Z,5.70
2022-11-09T18:44:43.707Z,6.57
2022-11-09T18:47:50.959Z,6.70
2022-11-09T18:50:56.492Z,6.78
2022-11-09T18:54:01.679Z,5.90
2022-11-09T18:57:15.909Z,6.07
2022-11-09T19:00:23.887Z,6.38
2022-11-09T19:03:28.755Z,6.40
2022-11-09T19:06:34.241Z,5.25
2022-11-09T19:09:42.406Z,6.20
2022-11-09T19:12:50.241Z,6.15
2022-11-09T19:15:58.322Z,6.53
2022-11-09T19:19:03.812Z,6.90
2022-11-09T19:22:12.307Z,6.30
2022-11-09T19:25:17.589Z,6.30
2022-11-09T19:28:25.038Z,6.57
2022-11-09T19:31:30.549Z,6.38
2022-11-09T19:34:35.647Z,6.28
2022-11-09T19:37:43.313Z,6.28
2022-11-09T19:40:49.974Z,6.40
2022-11-09T19:43:59.230Z,6.43
2022-11-09T19:47:04.357Z,7.07
2022-11-09T19:50:10.564Z,5.68
2022-11-09T19:53:15.499Z,5.95
2022-11-09T19:56:21.198Z,6.10
2022-11-09T19:59:29.675Z,6.03
2022-11-09T20:02:35.198Z,5.18
2022-11-09T20:05:40.056Z,6.38
2022-11-09T20:08:48.671Z,6.97
2022-11-09T20:12:22.451Z,6.32
2022-11-09T20:15:30.311Z,5.55
2022-11-09T20:18:37.062Z,4.70
2022-11-09T20:21:44.783Z,7.65
2022-11-09T20:24:52.394Z,6.15
2022-11-09T20:27:59.115Z,4.97
2022-11-09T20:31:16.388Z,5.22
2022-11-09T20:34:21.833Z,4.80
2022-11-09T20:37:26.768Z,4.82
2022-11-09T20:40:33.545Z,6.10
2022-11-09T20:43:40.552Z,5.30
2022-11-09T20:46:51.236Z,5.90
2022-11-09T20:49:58.127Z,4.90
2022-11-09T20:53:05.265Z,5.75
2022-11-09T20:56:11.065Z,5.10
2022-11-09T20:59:21.815Z,4.70
2022-11-09T21:02:37.683Z,5.03
2022-11-09T21:05:50.179Z,5.18
2022-11-09T21:08:57.581Z,5.78
2022-11-09T21:12:15.629Z,5.78
2022-11-09T21:15:20.544Z,5.10
2022-11-09T21:18:30.982Z,4.80
2022-11-09T21:21:38.800Z,5.40
2022-11-09T21:24:56.666Z,5.20
2022-11-09T21:28:14.016Z,4.95
2022-11-09T21:31:22.021Z,5.75
2022-11-09T21:34:36.286Z,5.13
2022-11-09T21:37:42.658Z,4.60
2022-11-09T21:40:50.883Z,5.00
2022-11-09T21:44:03.085Z,4.45
2022-11-09T21:47:11.275Z,4.40
2022-11-09T21:50:20.390Z,4.50
2022-11-09T21:53:26.748Z,4.65
2022-11-09T21:56:45.699Z,4.43
2022-11-09T21:59:52.840Z,4.10
2022-11-09T22:03:02.439Z,3.88
2022-11-09T22:06:10.292Z,3.65
2022-11-09T22:09:19.725Z,4.15
2022-11-09T22:12:38.542Z,3.97
2022-11-09T22:15:56.595Z,3.92
2022-11-09T22:19:16.983Z,4.30
2022-11-09T22:22:25.462Z,4.15
2022-11-09T22:25:31.209Z,4.70
2022-11-09T22:28:38.304Z,4.45
2022-11-09T22:31:44.078Z,4.32
2022-11-09T22:34:50.713Z,4.78
2022-11-09T22:38:07.814Z,3.85
2022-11-09T22:41:15.194Z,4.10
2022-11-09T22:44:21.501Z,3.70
2022-11-09T22:47:35.533Z,3.88
2022-11-09T22:50:40.864Z,3.65
2022-11-09T22:53:54.238Z,3.22
2022-11-09T22:57:02.406Z,3.30
2022-11-09T23:00:10.964Z,3.50
2022-11-09T23:03:16.257Z,3.85
2022-11-09T23:06:25.077Z,3.47
2022-11-09T23:09:36.001Z,3.10
2022-11-09T23:12:43.633Z,3.55
2022-11-09T23:15:56.435Z,3.50
2022-11-09T23:19:03.077Z,3.30
2022-11-09T23:22:10.186Z,2.85
2022-11-09T23:25:32.139Z,3.10
2022-11-09T23:28:38.808Z,3.13
2022-11-09T23:31:45.510Z,3.08
2022-11-09T23:34:53.010Z,2.47
2022-11-09T23:38:04.044Z,2.70
2022-11-09T23:41:15.025Z,1.93
2022-11-09T23:44:20.601Z,2.33
2022-11-09T23:47:26.457Z,2.60
2022-11-09T23:50:33.170Z,2.30
2022-11-09T23:53:47.189Z,2.58
2022-11-09T23:56:58.004Z,2.33
